Time;durP1;ratioP1;P1;durP2;ratioP2;P2;SDS_P1;SDS_P2;PMS_P1;PMS_P2;Temp;Humidity;BMP_temperature;BMP_pressure;BME280_temperature;BME280_humidity;BME280_pressure;Samples;Min_cycle;Max_cycle;Signal;HPM_P1;HPM_P2
2023/09/25 00:00:20;;;;;;;;;;;;;;;;;;6262946;22;19919;-85
2023/09/25 00:02:47;;;;;;;;;;;;;;;;;;6261266;22;19919;-85
2023/09/25 00:05:16;;;;;;;;;;;;;;;;;;6265166;22;20047;-85
2023/09/25 00:07:43;;;;;;;;;;;;;;;;;;6236612;22;19927;-85
2023/09/25 00:10:13;;;;;;;;;;;;;;;;;;6239107;22;19947;-85
2023/09/25 00:12:40;;;;;;;;;;;;;;;;;;6236314;22;19987;-85
2023/09/25 00:15:10;;;;;;;;;;;;;;;;;;6266026;22;20347;-85
2023/09/25 00:17:37;;;;;;;;;;;;;;;;;;6262017;22;19922;-85
2023/09/25 00:20:04;;;;;;;;;;;;;;;;;;6237609;22;19997;-85
2023/09/25 00:22:35;;;;;;;;;;;;;;;;;;6260952;22;20336;-85
2023/09/25 00:25:05;;;;;;;;;;;;;;;;;;6263173;22;20579;-85
2023/09/25 00:27:36;;;;;;;;;;;;;;;;;;6261054;22;19919;-85
2023/09/25 00:30:12;;;;;;;;;;;;;;;;;;6238386;22;19925;-85
2023/09/25 00:32:39;;;;;;;;;;;;;;;;;;6261665;22;20326;-85
2023/09/25 00:35:09;;;;;;;;;;;;;;;;;;6266405;22;20030;-85
2023/09/25 00:37:37;;;;;;;;;;;;;;;;;;6261970;22;19966;-85
2023/09/25 00:40:13;;;;;;;;;;;;;;;;;;6262356;22;19931;-85
2023/09/25 00:42:41;;;;;;;;;;;;;;;;;;6260086;22;19922;-85
2023/09/25 00:45:17;;;;;;;;;;;;;;;;;;6263735;22;19919;-85
2023/09/25 00:47:44;;;;;;;;;;;;;;;;;;6235957;22;20379;-85
2023/09/25 00:50:11;;;;;;;;;;;;;;;;;;6263959;22;20350;-85
2023/09/25 00:52:54;;;;;;;;;;;;;;;;;;6261424;22;19941;-85
2023/09/25 00:55:36;;;;;;;;;;;;;;;;;;6256561;22;19916;-85
2023/09/25 00:58:03;;;;;;;;;;;;;;;;;;6233103;22;19926;-85
2023/09/25 01:00:31;;;;;;;;;;;;;;;;;;6257379;22;20496;-85
2023/09/25 01:02:58;;;;;;;;;;;;;;;;;;6264155;22;19919;-85
2023/09/25 01:05:28;;;;;;;;;;;;;;;;;;6261443;22;19999;-86
2023/09/25 01:07:55;;;;;;;;;;;;;;;;;;6262169;22;19927;-85
2023/09/25 01:10:23;;;;;;;;;;;;;;;;;;6261579;22;19919;-85
2023/09/25 01:12:52;;;;;;;;;;;;;;;;;;6236400;22;19954;-85
2023/09/25 01:16:02;;;;;;;;;;;;;;;;;;6236845;22;19922;-85
2023/09/25 01:18:19;;;;;;;;;;;;;;;;;;6260515;22;19973;-85
2023/09/25 01:20:46;;;;;;;;;;;;;;;;;;6262171;22;19919;-85
2023/09/25 01:23:13;;;;;;;;;;;;;;;;;;6236086;22;19976;-85
2023/09/25 01:25:40;;;;;;;;;;;;;;;;;;6260970;22;19959;-85
2023/09/25 01:28:09;;;;;;;;;;;;;;;;;;6262095;22;20018;-85
2023/09/25 01:30:36;;;;;;;;;;;;;;;;;;6260237;22;20053;-86
2023/09/25 01:33:08;;;;;;;;;;;;;;;;;;6265677;22;19923;-85
2023/09/25 01:35:41;;;;;;;;;;;;;;;;;;6226494;22;19916;-85
2023/09/25 01:38:09;;;;;;;;;;;;;;;;;;6263068;22;19937;-85
2023/09/25 01:40:36;;;;;;;;;;;;;;;;;;6261422;22;19919;-85
2023/09/25 01:43:02;;;;;;;;;;;;;;;;;;6259777;22;19919;-85
2023/09/25 01:45:30;;;;;;;;;;;;;;;;;;6260642;22;20085;-85
2023/09/25 01:54:12;;;;;;;;;;;;;;;;;;6206902;23;20340;-87
2023/09/25 01:56:38;;;;;;;;;;;;;;;;;;6206033;23;19919;-87
2023/09/25 01:59:05;;;;;;;;;;;;;;;;;;6205948;23;19926;-87
2023/09/25 02:01:32;;;;;;;;;;;;;;;;;;6204653;23;20737;-86
2023/09/25 02:03:59;;;;;;;;;;;;;;;;;;6206916;23;19977;-87
2023/09/25 02:06:26;;;;;;;;;;;;;;;;;;6205886;23;19929;-86
2023/09/25 02:08:54;;;;;;;;;;;;;;;;;;6207019;23;19924;-87
2023/09/25 02:11:21;;;;;;;;;;;;;;;;;;6208304;23;19919;-87
2023/09/25 02:13:51;;;;;;;;;;;;;;;;;;6203836;23;19919;-87
2023/09/25 02:16:44;;;;;;;;;;;;;;;;;;6239602;22;19927;-87
2023/09/25 02:19:13;;;;;;;;;;;;;;;;;;6263133;22;19923;-86
2023/09/25 02:21:39;;;;;;;;;;;;;;;;;;6262114;22;20044;-87
2023/09/25 02:24:06;;;;;;;;;;;;;;;;;;6239346;22;19935;-87
2023/09/25 02:26:34;;;;;;;;;;;;;;;;;;6262163;22;19923;-87
2023/09/25 02:29:11;;;;;;;;;;;;;;;;;;;;;
2023/09/25 02:31:48;;;;;;;;;;;;;;;;;;6197743;23;19974;-87
2023/09/25 02:34:16;;;;;;;;;;;;;;;;;;6176733;23;20357;-86
2023/09/25 02:36:43;;;;;;;;;;;;;;;;;;6173859;23;20002;-86
2023/09/25 02:39:13;;;;;;;;;;;;;;;;;;6175837;23;19920;-86
2023/09/25 02:41:41;;;;;;;;;;;;;;;;;;6175067;23;19927;-86
2023/09/25 02:44:27;;;;;;;;;;;;;;;;;;;;;
2023/09/25 02:47:12;;;;;;;;;;;;;;;;;;6201645;23;19920;-86
2023/09/25 02:49:48;;;;;;;;;;;;;;;;;;6176224;23;19924;-86
2023/09/25 02:52:20;;;;;;;;;;;;;;;;;;6201692;23;20038;-86
2023/09/25 02:54:53;;;;;;;;;;;;;;;;;;6177818;23;19928;-86
2023/09/25 02:57:21;;;;;;;;;;;;;;;;;;6176432;23;19919;-87
2023/09/25 03:00:49;;;;;;;;;;;;;;;;;;6150848;23;20348;-86
2023/09/25 03:02:45;;;;;;;;;;;;;;;;;;6167199;23;19920;-86
2023/09/25 03:05:12;;;;;;;;;;;;;;;;;;6177140;23;19927;-87
2023/09/25 03:07:39;;;;;;;;;;;;;;;;;;6176448;23;19926;-86
2023/09/25 03:10:06;;;;;;;;;;;;;;;;;;6177003;23;19923;-86
2023/09/25 03:12:33;;;;;;;;;;;;;;;;;;6196341;23;19959;-87
2023/09/25 03:15:01;;;;;;;;;;;;;;;;;;6175602;22;20026;-86
2023/09/25 03:17:28;;;;;;;;;;;;;;;;;;6259898;22;19969;-87
2023/09/25 03:19:55;;;;;;;;;;;;;;;;;;6237697;22;20247;-86
2023/09/25 03:22:22;;;;;;;;;;;;;;;;;;6261968;22;19930;-86
2023/09/25 03:24:59;;;;;;;;;;;;;;;;;;6239219;22;20525;-86
2023/09/25 03:27:26;;;;;;;;;;;;;;;;;;6236413;22;19926;-86
2023/09/25 03:29:53;;;;;;;;;;;;;;;;;;6261827;22;19930;-86
2023/09/25 03:35:14;;;;;;;;;;;;;;;;;;6265662;22;19926;-86
2023/09/25 03:37:42;;;;;;;;;;;;;;;;;;6261858;22;19915;-86
2023/09/25 03:40:13;;;;;;;;;;;;;;;;;;6264021;22;20467;-86
2023/09/25 03:42:40;;;;;;;;;;;;;;;;;;6236047;22;20251;-86
2023/09/25 03:45:07;;;;;;;;;;;;;;;;;;6247620;22;19989;-85
2023/09/25 03:47:33;;;;;;;;;;;;;;;;;;6293646;22;19918;-85
2023/09/25 03:49:59;;;;;;;;;;;;;;;;;;6301473;22;19914;-85
2023/09/25 03:52:27;;;;;;;;;;;;;;;;;;6300681;22;20250;-85
2023/09/25 03:54:53;;;;;;;;;;;;;;;;;;6327542;22;19918;-85
2023/09/25 03:57:20;;;;;;;;;;;;;;;;;;6327687;22;19967;-86
2023/09/25 03:59:47;;;;;;;;;;;;;;;;;;6323820;22;20001;-86
2023/09/25 04:02:13;;;;;;;;;;;;;;;;;;6296232;22;20251;-86
2023/09/25 04:04:40;;;;;;;;;;;;;;;;;;6318067;22;19926;-86
2023/09/25 04:07:08;;;;;;;;;;;;;;;;;;6323837;22;19926;-85
2023/09/25 04:09:35;;;;;;;;;;;;;;;;;;6318857;22;20320;-86
2023/09/25 04:12:03;;;;;;;;;;;;;;;;;;6327086;22;20247;-86
2023/09/25 04:14:35;;;;;;;;;;;;;;;;;;6320679;22;19918;-86
2023/09/25 04:17:02;;;;;;;;;;;;;;;;;;6298932;22;19930;-86
2023/09/25 04:19:29;;;;;;;;;;;;;;;;;;6264743;22;19926;-86
2023/09/25 04:21:57;;;;;;;;;;;;;;;;;;6294885;22;19970;-86
2023/09/25 04:24:25;;;;;;;;;;;;;;;;;;6292045;22;19923;-87
2023/09/25 04:26:53;;;;;;;;;;;;;;;;;;6267356;22;19946;-86
2023/09/25 04:29:19;;;;;;;;;;;;;;;;;;6291238;22;19929;-86
2023/09/25 04:31:47;;;;;;;;;;;;;;;;;;6290152;22;19941;-85
2023/09/25 04:34:13;;;;;;;;;;;;;;;;;;6266153;22;19990;-87
2023/09/25 04:36:40;;;;;;;;;;;;;;;;;;6290232;22;19958;-86
2023/09/25 04:39:10;;;;;;;;;;;;;;;;;;6291089;22;19990;-86
2023/09/25 04:41:37;;;;;;;;;;;;;;;;;;6289034;22;19923;-86
2023/09/25 04:44:04;;;;;;;;;;;;;;;;;;6295959;22;20590;-86
2023/09/25 04:46:40;;;;;;;;;;;;;;;;;;6270720;22;19926;-86
2023/09/25 04:49:06;;;;;;;;;;;;;;;;;;6269618;22;19918;-86
2023/09/25 04:51:32;;;;;;;;;;;;;;;;;;6267969;22;19950;-86
2023/09/25 04:54:00;;;;;;;;;;;;;;;;;;6264701;22;19926;-86
2023/09/25 04:56:27;;;;;;;;;;;;;;;;;;6290379;22;19926;-87
2023/09/25 04:58:54;;;;;;;;;;;;;;;;;;6293755;22;20732;-86
2023/09/25 05:01:21;;;;;;;;;;;;;;;;;;6269234;22;19919;-86
2023/09/25 05:03:48;;;;;;;;;;;;;;;;;;6265382;22;19995;-86
2023/09/25 05:06:14;;;;;;;;;;;;;;;;;;6268854;22;19919;-86
2023/09/25 05:08:43;;;;;;;;;;;;;;;;;;6240675;22;20002;-86
2023/09/25 05:11:11;;;;;;;;;;;;;;;;;;6270118;22;20362;-86
2023/09/25 05:13:38;;;;;;;;;;;;;;;;;;6242379;22;19919;-86
2023/09/25 05:16:04;;;;;;;;;;;;;;;;;;6241109;22;19968;-86
2023/09/25 05:18:41;;;;;;;;;;;;;;;;;;6289194;22;19918;-86
2023/09/25 05:21:08;;;;;;;;;;;;;;;;;;6268084;22;20353;-86
2023/09/25 05:23:34;;;;;;;;;;;;;;;;;;6265649;22;19926;-86
2023/09/25 05:26:01;;;;;;;;;;;;;;;;;;6268283;22;20366;-86
2023/09/25 05:28:29;;;;;;;;;;;;;;;;;;6263105;22;19923;-86
2023/09/25 05:30:56;;;;;;;;;;;;;;;;;;6266143;22;19926;-86
2023/09/25 05:33:23;;;;;;;;;;;;;;;;;;6238943;22;19933;-86
2023/09/25 05:35:49;;;;;;;;;;;;;;;;;;6260975;22;19964;-86
2023/09/25 05:38:15;;;;;;;;;;;;;;;;;;6240162;22;20332;-86
2023/09/25 05:40:42;;;;;;;;;;;;;;;;;;6259399;22;19978;-86
2023/09/25 05:43:09;;;;;;;;;;;;;;;;;;6263461;22;20401;-87
2023/09/25 05:45:37;;;;;;;;;;;;;;;;;;6236487;22;20381;-86
2023/09/25 05:48:04;;;;;;;;;;;;;;;;;;6263494;22;19950;-87
2023/09/25 05:50:33;;;;;;;;;;;;;;;;;;6290370;22;19925;-87
2023/09/25 05:53:01;;;;;;;;;;;;;;;;;;6264523;22;19925;-87
2023/09/25 05:55:28;;;;;;;;;;;;;;;;;;6264629;22;19941;-87
2023/09/25 05:57:55;;;;;;;;;;;;;;;;;;6238364;22;19915;-87
2023/09/25 06:00:23;;;;;;;;;;;;;;;;;;6264553;22;19941;-87
2023/09/25 06:02:50;;;;;;;;;;;;;;;;;;6236351;22;20384;-87
2023/09/25 06:05:18;;;;;;;;;;;;;;;;;;6262737;22;19918;-87
2023/09/25 06:07:44;;;;;;;;;;;;;;;;;;6237436;22;19919;-87
2023/09/25 06:10:13;;;;;;;;;;;;;;;;;;6292712;22;19964;-87
2023/09/25 06:12:40;;;;;;;;;;;;;;;;;;6258482;22;19922;-87
2023/09/25 06:15:09;;;;;;;;;;;;;;;;;;6265778;22;19919;-87
2023/09/25 06:17:36;;;;;;;;;;;;;;;;;;6289743;22;19918;-86
2023/09/25 06:20:15;;;;;;;;;;;;;;;;;;6260889;22;19915;-90
2023/09/25 06:22:50;;;;;;;;;;;;;;;;;;6264190;22;20699;-87
2023/09/25 06:25:24;;;;;;;;;;;;;;;;;;6292910;22;19951;-87
2023/09/25 06:28:05;;;;;;;;;;;;;;;;;;6259476;22;19923;-87
2023/09/25 06:30:41;;;;;;;;;;;;;;;;;;6255814;22;19958;-87
2023/09/25 06:33:09;;;;;;;;;;;;;;;;;;6266075;22;20644;-87
2023/09/25 06:35:35;;;;;;;;;;;;;;;;;;6263783;22;19972;-87
2023/09/25 06:38:02;;;;;;;;;;;;;;;;;;6240256;22;19918;-87
2023/09/25 06:40:28;;;;;;;;;;;;;;;;;;6240561;22;19968;-87
2023/09/25 06:42:54;;;;;;;;;;;;;;;;;;6269434;22;19915;-87
2023/09/25 06:45:29;;;;;;;;;;;;;;;;;;6268813;22;20380;-87
2023/09/25 06:47:56;;;;;;;;;;;;;;;;;;6267304;22;19915;-87
2023/09/25 06:50:24;;;;;;;;;;;;;;;;;;6239996;22;20358;-87
2023/09/25 06:52:51;;;;;;;;;;;;;;;;;;6241545;22;20447;-87
2023/09/25 06:55:19;;;;;;;;;;;;;;;;;;6297545;22;19918;-87
2023/09/25 06:57:45;;;;;;;;;;;;;;;;;;6265784;22;20408;-87
2023/09/25 07:00:13;;;;;;;;;;;;;;;;;;6239670;22;19919;-87
2023/09/25 07:02:42;;;;;;;;;;;;;;;;;;6265241;22;20544;-87
2023/09/25 07:05:13;;;;;;;;;;;;;;;;;;6267910;22;20498;-88
2023/09/25 07:07:39;;;;;;;;;;;;;;;;;;6236551;22;19923;-88
2023/09/25 07:10:10;;;;;;;;;;;;;;;;;;6266203;22;19926;-87
2023/09/25 07:12:36;;;;;;;;;;;;;;;;;;6237384;22;20013;-87
2023/09/25 07:15:03;;;;;;;;;;;;;;;;;;6263206;22;19925;-87
2023/09/25 07:17:32;;;;;;;;;;;;;;;;;;6263068;22;20285;-88
2023/09/25 07:19:59;;;;;;;;;;;;;;;;;;6238873;22;19946;-88
2023/09/25 07:22:27;;;;;;;;;;;;;;;;;;6263097;22;19968;-89
2023/09/25 07:24:54;;;;;;;;;;;;;;;;;;6264769;22;19919;-87
2023/09/25 07:27:27;;;;;;;;;;;;;;;;;;6275233;22;19910;-87
2023/09/25 07:30:08;;;;;;;;;;;;;;;;;;6275466;22;19923;-87
2023/09/25 07:32:34;;;;;;;;;;;;;;;;;;6263870;22;20216;-87
2023/09/25 07:35:04;;;;;;;;;;;;;;;;;;6239728;22;19926;-87
2023/09/25 07:37:32;;;;;;;;;;;;;;;;;;6262089;22;19922;-87
2023/09/25 07:39:59;;;;;;;;;;;;;;;;;;6241230;22;19996;-87
2023/09/25 07:42:26;;;;;;;;;;;;;;;;;;6239752;22;20570;-88
2023/09/25 07:44:52;;;;;;;;;;;;;;;;;;6267256;22;19918;-88
2023/09/25 07:47:20;;;;;;;;;;;;;;;;;;6243439;22;19980;-88
2023/09/25 07:49:46;;;;;;;;;;;;;;;;;;6265378;22;19958;-88
2023/09/25 07:52:24;;;;;;;;;;;;;;;;;;6244001;22;20332;-87
2023/09/25 07:54:50;;;;;;;;;;;;;;;;;;6266816;22;20351;-88
2023/09/25 07:57:19;;;;;;;;;;;;;;;;;;6268838;22;19998;-87
2023/09/25 07:59:45;;;;;;;;;;;;;;;;;;6240011;22;19942;-87
2023/09/25 08:02:16;;;;;;;;;;;;;;;;;;6267317;22;20005;-88
2023/09/25 08:04:42;;;;;;;;;;;;;;;;;;6266441;22;19915;-87
2023/09/25 08:07:08;;;;;;;;;;;;;;;;;;6270213;22;20354;-87
2023/09/25 08:09:44;;;;;;;;;;;;;;;;;;6243265;22;20875;-87
2023/09/25 08:12:15;;;;;;;;;;;;;;;;;;6243250;22;19993;-88
2023/09/25 08:14:42;;;;;;;;;;;;;;;;;;6267395;22;19919;-87
2023/09/25 08:17:10;;;;;;;;;;;;;;;;;;6267063;22;20259;-88
2023/09/25 08:19:36;;;;;;;;;;;;;;;;;;6242590;22;20404;-87
2023/09/25 08:22:04;;;;;;;;;;;;;;;;;;6266826;22;19919;-87
2023/09/25 08:24:32;;;;;;;;;;;;;;;;;;6241683;22;19978;-87
2023/09/25 08:26:58;;;;;;;;;;;;;;;;;;6270243;22;19990;-87
2023/09/25 08:29:25;;;;;;;;;;;;;;;;;;6241045;22;19992;-88
2023/09/25 08:31:52;;;;;;;;;;;;;;;;;;6297108;22;19926;-87
2023/09/25 08:34:19;;;;;;;;;;;;;;;;;;6243469;22;19954;-87
2023/09/25 08:36:46;;;;;;;;;;;;;;;;;;6237974;22;20424;-88
2023/09/25 08:39:13;;;;;;;;;;;;;;;;;;6263919;22;19918;-87
2023/09/25 08:41:39;;;;;;;;;;;;;;;;;;6239351;22;19954;-88
2023/09/25 08:44:05;;;;;;;;;;;;;;;;;;6243333;22;19923;-88
2023/09/25 08:46:32;;;;;;;;;;;;;;;;;;6264335;22;20686;-87
2023/09/25 08:49:01;;;;;;;;;;;;;;;;;;6242579;22;20346;-87
2023/09/25 08:51:33;;;;;;;;;;;;;;;;;;6241238;22;19914;-87
2023/09/25 08:54:04;;;;;;;;;;;;;;;;;;6269358;22;19946;-87
2023/09/25 08:56:34;;;;;;;;;;;;;;;;;;6241080;22;20346;-87
2023/09/25 08:59:00;;;;;;;;;;;;;;;;;;6241745;22;19923;-88
2023/09/25 09:01:26;;;;;;;;;;;;;;;;;;6239533;22;20253;-87
2023/09/25 09:03:52;;;;;;;;;;;;;;;;;;6241024;22;19918;-88
2023/09/25 09:06:20;;;;;;;;;;;;;;;;;;6242011;22;20331;-88
2023/09/25 09:08:48;;;;;;;;;;;;;;;;;;6265447;22;19927;-88
2023/09/25 09:11:15;;;;;;;;;;;;;;;;;;6267578;22;19919;-87
2023/09/25 09:13:42;;;;;;;;;;;;;;;;;;6238808;22;19975;-89
2023/09/25 09:16:10;;;;;;;;;;;;;;;;;;6265819;22;19922;-88
2023/09/25 09:18:37;;;;;;;;;;;;;;;;;;6238683;22;20328;-89
2023/09/25 09:21:05;;;;;;;;;;;;;;;;;;6239087;22;19918;-89
2023/09/25 09:23:38;;;;;;;;;;;;;;;;;;6264309;22;19919;-89
2023/09/25 09:26:07;;;;;;;;;;;;;;;;;;6268495;22;19926;-89
2023/09/25 09:28:35;;;;;;;;;;;;;;;;;;6264463;22;19923;-88
2023/09/25 09:31:05;;;;;;;;;;;;;;;;;;6269274;22;19990;-89
2023/09/25 09:33:44;;;;;;;;;;;;;;;;;;6267765;22;20303;-89
2023/09/25 09:36:14;;;;;;;;;;;;;;;;;;6241693;22;20670;-88
2023/09/25 09:38:46;;;;;;;;;;;;;;;;;;6264197;22;19946;-88
2023/09/25 09:41:13;;;;;;;;;;;;;;;;;;6270575;22;19919;-89
2023/09/25 09:43:49;;;;;;;;;;;;;;;;;;6262084;22;20363;-89
2023/09/25 09:46:15;;;;;;;;;;;;;;;;;;6251878;22;20146;-89
2023/09/25 09:48:44;;;;;;;;;;;;;;;;;;6264370;22;19923;-88
2023/09/25 09:51:11;;;;;;;;;;;;;;;;;;6293299;22;19941;-89
2023/09/25 09:53:38;;;;;;;;;;;;;;;;;;6265586;22;19961;-89
2023/09/25 09:56:05;;;;;;;;;;;;;;;;;;6265496;22;19926;-89
2023/09/25 09:58:33;;;;;;;;;;;;;;;;;;6290786;22;19919;-89
2023/09/25 10:01:00;;;;;;;;;;;;;;;;;;6295150;22;19980;-89
2023/09/25 10:03:29;;;;;;;;;;;;;;;;;;6265773;22;20232;-89
2023/09/25 10:05:56;;;;;;;;;;;;;;;;;;6265426;22;19930;-89
2023/09/25 10:08:25;;;;;;;;;;;;;;;;;;6289394;22;20331;-89
2023/09/25 10:10:53;;;;;;;;;;;;;;;;;;6292463;22;20262;-88
2023/09/25 10:13:21;;;;;;;;;;;;;;;;;;6266832;22;19915;-89
2023/09/25 10:15:48;;;;;;;;;;;;;;;;;;6293447;22;19919;-89
2023/09/25 10:18:15;;;;;;;;;;;;;;;;;;6296260;22;20246;-89
2023/09/25 10:20:42;;;;;;;;;;;;;;;;;;6293788;22;19989;-89
2023/09/25 10:23:09;;;;;;;;;;;;;;;;;;6270065;22;19923;-89
2023/09/25 10:25:36;;;;;;;;;;;;;;;;;;6294802;22;19959;-89
2023/09/25 10:28:03;;;;;;;;;;;;;;;;;;6296670;22;19918;-89
2023/09/25 10:30:30;;;;;;;;;;;;;;;;;;6266062;22;19934;-89
2023/09/25 10:32:56;;;;;;;;;;;;;;;;;;6269802;22;20323;-89
2023/09/25 10:35:23;;;;;;;;;;;;;;;;;;6290152;22;20005;-89
2023/09/25 10:37:50;;;;;;;;;;;;;;;;;;6296093;22;19923;-88
2023/09/25 10:40:17;;;;;;;;;;;;;;;;;;6272733;22;19915;-87
2023/09/25 10:42:45;;;;;;;;;;;;;;;;;;6270336;22;19988;-87
2023/09/25 10:45:12;;;;;;;;;;;;;;;;;;6298719;22;20354;-86
2023/09/25 10:47:39;;;;;;;;;;;;;;;;;;6245478;22;19947;-87
2023/09/25 10:50:05;;;;;;;;;;;;;;;;;;6270692;22;20336;-87
2023/09/25 10:52:31;;;;;;;;;;;;;;;;;;6269164;22;20033;-87
2023/09/25 10:54:58;;;;;;;;;;;;;;;;;;6272198;22;20007;-87
2023/09/25 10:57:24;;;;;;;;;;;;;;;;;;6244273;22;19915;-87
2023/09/25 10:59:50;;;;;;;;;;;;;;;;;;6245956;22;19923;-87
2023/09/25 11:02:16;;;;;;;;;;;;;;;;;;6269953;22;20426;-88
2023/09/25 11:04:42;;;;;;;;;;;;;;;;;;6268891;22;19942;-87
2023/09/25 11:07:12;;;;;;;;;;;;;;;;;;6246543;22;19919;-87
2023/09/25 11:09:39;;;;;;;;;;;;;;;;;;6270882;22;19926;-87
2023/09/25 11:12:07;;;;;;;;;;;;;;;;;;6292583;22;19915;-88
2023/09/25 11:14:34;;;;;;;;;;;;;;;;;;6236471;22;19918;-89
2023/09/25 11:17:01;;;;;;;;;;;;;;;;;;6241616;22;19919;-90
2023/09/25 11:19:27;;;;;;;;;;;;;;;;;;6239992;22;19918;-89
2023/09/25 11:21:55;;;;;;;;;;;;;;;;;;6243244;22;19926;-89
2023/09/25 11:24:22;;;;;;;;;;;;;;;;;;6264197;22;20247;-89
2023/09/25 11:26:51;;;;;;;;;;;;;;;;;;6294421;22;20229;-90
2023/09/25 11:29:17;;;;;;;;;;;;;;;;;;6242867;22;20002;-90
2023/09/25 11:31:43;;;;;;;;;;;;;;;;;;6265777;22;19919;-89
2023/09/25 11:34:09;;;;;;;;;;;;;;;;;;6245763;22;19964;-90
2023/09/25 11:36:35;;;;;;;;;;;;;;;;;;6251873;22;19934;-89
2023/09/25 11:39:04;;;;;;;;;;;;;;;;;;6243758;22;19914;-89
2023/09/25 11:41:32;;;;;;;;;;;;;;;;;;6265135;22;20718;-89
2023/09/25 11:44:01;;;;;;;;;;;;;;;;;;6264242;22;20251;-88
2023/09/25 11:46:29;;;;;;;;;;;;;;;;;;6279207;22;19985;-89
2023/09/25 11:48:55;;;;;;;;;;;;;;;;;;6267936;22;19923;-90
2023/09/25 11:51:22;;;;;;;;;;;;;;;;;;6267636;22;19964;-90
2023/09/25 11:53:49;;;;;;;;;;;;;;;;;;6292275;22;20481;-90
2023/09/25 11:56:17;;;;;;;;;;;;;;;;;;6291505;22;19925;-90
2023/09/25 11:58:44;;;;;;;;;;;;;;;;;;6290918;22;19989;-90
2023/09/25 12:01:12;;;;;;;;;;;;;;;;;;6293457;22;20323;-89
2023/09/25 12:03:39;;;;;;;;;;;;;;;;;;6287079;22;19934;-89
2023/09/25 12:06:06;;;;;;;;;;;;;;;;;;6267940;22;19918;-88
2023/09/25 12:08:36;;;;;;;;;;;;;;;;;;6290862;22;19919;-89
2023/09/25 12:11:01;;;;;;;;;;;;;;;;;;6269430;22;19918;-89
2023/09/25 12:13:28;;;;;;;;;;;;;;;;;;6263404;22;20401;-90
2023/09/25 12:15:54;;;;;;;;;;;;;;;;;;6293327;22;19985;-90
2023/09/25 12:18:37;;;;;;;;;;;;;;;;;;6291454;22;19915;-89
2023/09/25 12:21:07;;;;;;;;;;;;;;;;;;6265557;22;20345;-89
2023/09/25 12:23:34;;;;;;;;;;;;;;;;;;6291036;22;19954;-89
2023/09/25 12:26:00;;;;;;;;;;;;;;;;;;6293611;22;19925;-90
2023/09/25 12:28:29;;;;;;;;;;;;;;;;;;6291365;22;20318;-90
2023/09/25 12:30:55;;;;;;;;;;;;;;;;;;6268701;22;19934;-89
2023/09/25 12:33:22;;;;;;;;;;;;;;;;;;6267127;22;19918;-89
2023/09/25 12:35:49;;;;;;;;;;;;;;;;;;6289696;22;19923;-89
2023/09/25 12:38:15;;;;;;;;;;;;;;;;;;6290515;22;19925;-89
2023/09/25 12:40:42;;;;;;;;;;;;;;;;;;6292134;22;19919;-89
2023/09/25 12:43:10;;;;;;;;;;;;;;;;;;6267429;22;19977;-89
2023/09/25 12:45:36;;;;;;;;;;;;;;;;;;6287682;22;19922;-90
2023/09/25 12:48:03;;;;;;;;;;;;;;;;;;6240208;22;19918;-90
2023/09/25 12:50:31;;;;;;;;;;;;;;;;;;6238216;22;19926;-90
2023/09/25 12:52:57;;;;;;;;;;;;;;;;;;6238674;22;19925;-89
2023/09/25 12:55:30;;;;;;;;;;;;;;;;;;6240461;22;20006;-90
2023/09/25 12:57:57;;;;;;;;;;;;;;;;;;6264236;22;19918;-90
2023/09/25 13:00:25;;;;;;;;;;;;;;;;;;6268706;22;20274;-89
2023/09/25 13:02:55;;;;;;;;;;;;;;;;;;6269329;22;19968;-89
2023/09/25 13:05:22;;;;;;;;;;;;;;;;;;6264947;22;19919;-89
2023/09/25 13:07:49;;;;;;;;;;;;;;;;;;6239265;22;19927;-89
2023/09/25 13:10:18;;;;;;;;;;;;;;;;;;6263225;22;19923;-90
2023/09/25 13:12:44;;;;;;;;;;;;;;;;;;6265470;22;19934;-89
2023/09/25 13:15:11;;;;;;;;;;;;;;;;;;6243033;22;20251;-90
2023/09/25 13:17:41;;;;;;;;;;;;;;;;;;6267421;22;19970;-89
2023/09/25 13:20:09;;;;;;;;;;;;;;;;;;6268803;22;19962;-89
2023/09/25 13:22:37;;;;;;;;;;;;;;;;;;6265367;22;20020;-89
2023/09/25 13:25:04;;;;;;;;;;;;;;;;;;6240924;22;19977;-89
2023/09/25 13:27:31;;;;;;;;;;;;;;;;;;6237502;22;20532;-89
2023/09/25 13:29:58;;;;;;;;;;;;;;;;;;6264639;22;19923;-90
2023/09/25 13:32:26;;;;;;;;;;;;;;;;;;6258336;22;20269;-91
2023/09/25 13:34:52;;;;;;;;;;;;;;;;;;6266975;22;19992;-90
2023/09/25 13:37:19;;;;;;;;;;;;;;;;;;6267079;22;19934;-91
2023/09/25 13:39:46;;;;;;;;;;;;;;;;;;6262211;22;19979;-91
2023/09/25 13:42:12;;;;;;;;;;;;;;;;;;6267241;22;19933;-91
2023/09/25 13:44:43;;;;;;;;;;;;;;;;;;6264791;22;19918;-90
2023/09/25 13:47:10;;;;;;;;;;;;;;;;;;6263761;22;19927;-90
2023/09/25 13:49:43;;;;;;;;;;;;;;;;;;6236333;22;19922;-90
2023/09/25 13:52:10;;;;;;;;;;;;;;;;;;6266579;22;19922;-90
2023/09/25 13:54:37;;;;;;;;;;;;;;;;;;6260496;22;19919;-90
2023/09/25 13:57:04;;;;;;;;;;;;;;;;;;6261813;22;19961;-90
2023/09/25 14:17:32;;;;;;;;;;;;;;;;;;6316964;22;19922;-84
2023/09/25 14:20:00;;;;;;;;;;;;;;;;;;6290490;22;20400;-85
2023/09/25 14:22:27;;;;;;;;;;;;;;;;;;6285380;22;19919;-84
2023/09/25 14:24:54;;;;;;;;;;;;;;;;;;6292934;22;19919;-84
2023/09/25 14:27:22;;;;;;;;;;;;;;;;;;6289848;22;20382;-84
2023/09/25 14:29:49;;;;;;;;;;;;;;;;;;6290336;22;19926;-84
2023/09/25 14:32:16;;;;;;;;;;;;;;;;;;6293639;22;19919;-84
2023/09/25 14:34:44;;;;;;;;;;;;;;;;;;6288145;22;19918;-84
2023/09/25 14:37:11;;;;;;;;;;;;;;;;;;6317576;22;19925;-84
2023/09/25 14:39:38;;;;;;;;;;;;;;;;;;6288271;22;20165;-84
2023/09/25 14:42:05;;;;;;;;;;;;;;;;;;6319496;22;19990;-84
2023/09/25 14:44:33;;;;;;;;;;;;;;;;;;6313466;22;20381;-88
2023/09/25 14:47:07;;;;;;;;;;;;;;;;;;6321079;22;20691;-85
2023/09/25 14:49:34;;;;;;;;;;;;;;;;;;6290297;22;19922;-84
2023/09/25 14:52:11;;;;;;;;;;;;;;;;;;6320395;22;19926;-84
2023/09/25 14:54:39;;;;;;;;;;;;;;;;;;6317606;22;19918;-84
2023/09/25 14:57:06;;;;;;;;;;;;;;;;;;6320101;22;19965;-84
2023/09/25 14:59:33;;;;;;;;;;;;;;;;;;6293369;22;19953;-84
2023/09/25 15:02:00;;;;;;;;;;;;;;;;;;6321367;22;19918;-84
2023/09/25 15:04:31;;;;;;;;;;;;;;;;;;6291662;22;20289;-84
2023/09/25 15:06:58;;;;;;;;;;;;;;;;;;6289790;22;19971;-84
2023/09/25 15:09:25;;;;;;;;;;;;;;;;;;6319889;22;20297;-85
2023/09/25 15:11:53;;;;;;;;;;;;;;;;;;6291615;22;19918;-85
2023/09/25 15:14:20;;;;;;;;;;;;;;;;;;6323201;22;19942;-84
2023/09/25 15:16:47;;;;;;;;;;;;;;;;;;6319126;22;20345;-84
2023/09/25 15:19:18;;;;;;;;;;;;;;;;;;6320349;22;19919;-84
2023/09/25 15:21:45;;;;;;;;;;;;;;;;;;6317357;22;20429;-84
2023/09/25 15:24:12;;;;;;;;;;;;;;;;;;6319939;22;20309;-84
2023/09/25 15:26:39;;;;;;;;;;;;;;;;;;6293783;22;19919;-84
2023/09/25 15:29:07;;;;;;;;;;;;;;;;;;6320198;22;19922;-84
2023/09/25 15:31:49;;;;;;;;;;;;;;;;;;6317893;22;20069;-84
2023/09/25 15:34:17;;;;;;;;;;;;;;;;;;6294629;22;20402;-84
2023/09/25 15:36:44;;;;;;;;;;;;;;;;;;6294097;22;19964;-84
2023/09/25 15:39:11;;;;;;;;;;;;;;;;;;6321230;22;19915;-84
2023/09/25 15:41:38;;;;;;;;;;;;;;;;;;6291608;22;19953;-84
2023/09/25 15:44:05;;;;;;;;;;;;;;;;;;6318358;22;19981;-84
2023/09/25 15:46:33;;;;;;;;;;;;;;;;;;6315942;22;19925;-84
2023/09/25 15:49:00;;;;;;;;;;;;;;;;;;6321219;22;20357;-84
2023/09/25 15:51:27;;;;;;;;;;;;;;;;;;6317108;22;19915;-85
2023/09/25 15:53:54;;;;;;;;;;;;;;;;;;6294548;22;20118;-84
2023/09/25 15:56:22;;;;;;;;;;;;;;;;;;6292673;22;20343;-85
2023/09/25 15:58:49;;;;;;;;;;;;;;;;;;6320015;22;19918;-84
2023/09/25 16:01:16;;;;;;;;;;;;;;;;;;6320858;22;19973;-84
2023/09/25 16:03:44;;;;;;;;;;;;;;;;;;6316488;22;19925;-84
2023/09/25 16:06:24;;;;;;;;;;;;;;;;;;;;;
2023/09/25 16:08:51;;;;;;;;;;;;;;;;;;6319297;22;19968;-84
2023/09/25 16:11:19;;;;;;;;;;;;;;;;;;6318982;22;19922;-84
2023/09/25 16:13:46;;;;;;;;;;;;;;;;;;6291241;22;20326;-84
2023/09/25 16:16:13;;;;;;;;;;;;;;;;;;6320497;22;19994;-84
2023/09/25 16:18:56;;;;;;;;;;;;;;;;;;6317237;22;19918;-85
2023/09/25 16:21:23;;;;;;;;;;;;;;;;;;6320288;22;19926;-84
2023/09/25 16:27:06;;;;;;;;;;;;;;;;;;6296472;22;19918;-84
2023/09/25 16:29:32;;;;;;;;;;;;;;;;;;6232968;22;19923;-84
2023/09/25 16:32:00;;;;;;;;;;;;;;;;;;6234812;22;20038;-84
2023/09/25 16:34:30;;;;;;;;;;;;;;;;;;6258428;22;20331;-84
2023/09/25 16:37:00;;;;;;;;;;;;;;;;;;6259413;22;19919;-84
2023/09/25 16:39:27;;;;;;;;;;;;;;;;;;6231309;22;19919;-85
2023/09/25 16:41:54;;;;;;;;;;;;;;;;;;6233844;22;19919;-84
2023/09/25 16:44:22;;;;;;;;;;;;;;;;;;6261082;22;19918;-84
2023/09/25 16:47:04;;;;;;;;;;;;;;;;;;6259547;22;19914;-84
2023/09/25 16:49:30;;;;;;;;;;;;;;;;;;6235965;22;20539;-84
2023/09/25 16:51:58;;;;;;;;;;;;;;;;;;6234138;22;20024;-84
2023/09/25 16:54:25;;;;;;;;;;;;;;;;;;6233278;22;20004;-84
2023/09/25 16:57:05;;;;;;;;;;;;;;;;;;6263904;22;19919;-84
2023/09/25 16:59:34;;;;;;;;;;;;;;;;;;6234210;22;19927;-83
2023/09/25 17:02:01;;;;;;;;;;;;;;;;;;6262808;22;19918;-84
2023/09/25 17:04:28;;;;;;;;;;;;;;;;;;6305282;22;19983;-83
2023/09/25 17:07:02;;;;;;;;;;;;;;;;;;6321993;22;19977;-83
2023/09/25 17:09:29;;;;;;;;;;;;;;;;;;6317755;22;19937;-83
2023/09/25 17:11:57;;;;;;;;;;;;;;;;;;6318585;22;19918;-84
2023/09/25 17:14:27;;;;;;;;;;;;;;;;;;6292507;22;19925;-84
2023/09/25 17:16:58;;;;;;;;;;;;;;;;;;6302861;22;21727;-83
2023/09/25 17:19:25;;;;;;;;;;;;;;;;;;6318543;22;19919;-84
2023/09/25 17:22:02;;;;;;;;;;;;;;;;;;6319740;22;20820;-84
2023/09/25 17:24:30;;;;;;;;;;;;;;;;;;6290378;22;19918;-83
2023/09/25 17:26:57;;;;;;;;;;;;;;;;;;6323969;22;20758;-83